Terminal Aerodrome Forecast
Issued by NWS Bismarck, ND

Home | Current Version | Previous Version | Text Only | Print | Product List | Glossary Off
Versions: 1 2 3 4 5 6 7 8 9 10 11 12 13 14 15

000
FTUS43 KBIS 010500
TAFISN
TAF
KISN 010520Z 0106/0206 27005KT P6SM SCT040 OVC060
     FM010800 30006KT 4SM -SN OVC035
     FM011500 30008KT P6SM OVC020
     FM012200 30008KT P6SM SCT040=

USA.gov is the U.S. government's official web portal to all federal, state and local government web resources and services.